sensor_id;sensor_type;location;lat;lon;timestamp;pressure;altitude;pressure_sealevel;temperature;humidity
1401;BME280;46518;48.842;8.926;2022-07-17T00:02:30;97932.97;;;18.07;50.12
1401;BME280;46518;48.842;8.926;2022-07-17T00:04:58;97935.34;;;18.04;50.64
1401;BME280;46518;48.842;8.926;2022-07-17T00:07:27;97936.47;;;17.98;50.43
1401;BME280;46518;48.842;8.926;2022-07-17T00:09:55;97937.75;;;18.10;49.82
1401;BME280;46518;48.842;8.926;2022-07-17T00:12:25;97934.25;;;18.15;49.43
1401;BME280;46518;48.842;8.926;2022-07-17T00:14:54;97940.41;;;18.10;49.69
1401;BME280;46518;48.842;8.926;2022-07-17T00:17:22;97936.66;;;18.11;49.52
1401;BME280;46518;48.842;8.926;2022-07-17T00:19:50;97937.50;;;17.97;49.99
1401;BME280;46518;48.842;8.926;2022-07-17T00:22:19;97923.94;;;17.98;49.79
1401;BME280;46518;48.842;8.926;2022-07-17T00:24:47;97931.31;;;18.11;49.75
1401;BME280;46518;48.842;8.926;2022-07-17T00:27:16;97934.53;;;18.08;49.83
1401;BME280;46518;48.842;8.926;2022-07-17T00:29:45;97934.34;;;17.79;50.92
1401;BME280;46518;48.842;8.926;2022-07-17T00:32:14;97931.47;;;17.81;50.81
1401;BME280;46518;48.842;8.926;2022-07-17T00:34:43;97927.72;;;17.72;51.24
1401;BME280;46518;48.842;8.926;2022-07-17T00:37:12;97930.09;;;17.78;51.06
1401;BME280;46518;48.842;8.926;2022-07-17T00:39:40;97931.69;;;17.79;50.67
1401;BME280;46518;48.842;8.926;2022-07-17T00:42:10;97918.75;;;17.57;51.31
1401;BME280;46518;48.842;8.926;2022-07-17T00:44:40;97930.69;;;17.70;50.95
1401;BME280;46518;48.842;8.926;2022-07-17T00:47:14;97928.00;;;17.80;50.21
1401;BME280;46518;48.842;8.926;2022-07-17T00:49:43;97934.06;;;17.96;49.79
1401;BME280;46518;48.842;8.926;2022-07-17T00:52:13;97935.69;;;17.87;50.49
1401;BME280;46518;48.842;8.926;2022-07-17T00:54:42;97933.31;;;17.85;50.18
1401;BME280;46518;48.842;8.926;2022-07-17T00:57:13;97935.13;;;18.00;49.91
1401;BME280;46518;48.842;8.926;2022-07-17T00:59:42;97930.34;;;17.97;49.91
1401;BME280;46518;48.842;8.926;2022-07-17T01:02:12;97932.66;;;18.09;49.41
1401;BME280;46518;48.842;8.926;2022-07-17T01:04:43;97933.50;;;17.99;49.57
1401;BME280;46518;48.842;8.926;2022-07-17T01:07:12;97936.00;;;17.80;50.27
1401;BME280;46518;48.842;8.926;2022-07-17T01:09:40;97943.69;;;17.82;50.56
1401;BME280;46518;48.842;8.926;2022-07-17T01:12:09;97941.06;;;17.61;51.33
1401;BME280;46518;48.842;8.926;2022-07-17T01:14:38;97941.63;;;17.53;51.10
1401;BME280;46518;48.842;8.926;2022-07-17T01:17:07;97945.84;;;17.64;51.16
1401;BME280;46518;48.842;8.926;2022-07-17T01:19:35;97939.78;;;17.43;51.77
1401;BME280;46518;48.842;8.926;2022-07-17T01:22:05;97946.16;;;17.53;51.41
1401;BME280;46518;48.842;8.926;2022-07-17T01:24:33;97942.69;;;17.57;51.35
1401;BME280;46518;48.842;8.926;2022-07-17T01:27:02;97939.19;;;17.62;50.90
1401;BME280;46518;48.842;8.926;2022-07-17T01:29:30;97940.81;;;17.63;50.88
1401;BME280;46518;48.842;8.926;2022-07-17T01:31:58;97942.41;;;17.59;50.81
1401;BME280;46518;48.842;8.926;2022-07-17T01:34:27;97947.72;;;17.59;51.15
1401;BME280;46518;48.842;8.926;2022-07-17T01:36:55;97940.03;;;17.57;51.26
1401;BME280;46518;48.842;8.926;2022-07-17T01:39:25;97942.19;;;17.50;51.22
1401;BME280;46518;48.842;8.926;2022-07-17T01:42:07;97940.56;;;17.49;51.39
1401;BME280;46518;48.842;8.926;2022-07-17T01:44:36;97936.03;;;17.44;51.26
1401;BME280;46518;48.842;8.926;2022-07-17T01:47:05;97937.34;;;17.52;51.24
1401;BME280;46518;48.842;8.926;2022-07-17T01:49:33;97944.81;;;17.55;51.64
1401;BME280;46518;48.842;8.926;2022-07-17T01:52:01;97938.41;;;17.61;51.45
1401;BME280;46518;48.842;8.926;2022-07-17T01:54:31;97932.03;;;17.52;52.14
1401;BME280;46518;48.842;8.926;2022-07-17T01:57:01;97937.41;;;17.21;53.54
1401;BME280;46518;48.842;8.926;2022-07-17T01:59:29;97935.84;;;17.15;53.95
1401;BME280;46518;48.842;8.926;2022-07-17T02:01:58;97931.56;;;16.99;54.07
1401;BME280;46518;48.842;8.926;2022-07-17T02:04:26;97932.13;;;16.96;53.53
1401;BME280;46518;48.842;8.926;2022-07-17T02:06:55;97925.19;;;16.90;53.11
1401;BME280;46518;48.842;8.926;2022-07-17T02:09:23;97928.38;;;17.02;52.62
1401;BME280;46518;48.842;8.926;2022-07-17T02:11:54;97932.13;;;17.01;52.89
1401;BME280;46518;48.842;8.926;2022-07-17T02:14:22;97932.38;;;17.10;52.83
1401;BME280;46518;48.842;8.926;2022-07-17T02:16:52;97928.13;;;16.98;52.73
1401;BME280;46518;48.842;8.926;2022-07-17T02:19:20;97925.19;;;16.79;53.56
1401;BME280;46518;48.842;8.926;2022-07-17T02:21:49;97916.97;;;16.81;53.74
1401;BME280;46518;48.842;8.926;2022-07-17T02:24:40;97924.09;;;16.55;54.66
1401;BME280;46518;48.842;8.926;2022-07-17T02:27:10;97916.38;;;16.48;54.72
1401;BME280;46518;48.842;8.926;2022-07-17T02:29:38;97921.13;;;16.31;55.55
1401;BME280;46518;48.842;8.926;2022-07-17T02:32:07;97920.59;;;16.44;54.85
1401;BME280;46518;48.842;8.926;2022-07-17T02:34:35;97919.28;;;16.47;55.35
1401;BME280;46518;48.842;8.926;2022-07-17T02:37:03;97918.75;;;16.45;55.00
1401;BME280;46518;48.842;8.926;2022-07-17T02:39:32;97916.59;;;16.36;55.18
1401;BME280;46518;48.842;8.926;2022-07-17T02:42:00;97916.06;;;16.34;54.69
1401;BME280;46518;48.842;8.926;2022-07-17T02:44:30;97913.97;;;16.67;54.11
1401;BME280;46518;48.842;8.926;2022-07-17T02:46:59;97908.97;;;16.81;53.93
1401;BME280;46518;48.842;8.926;2022-07-17T02:49:27;97903.38;;;16.77;54.17
1401;BME280;46518;48.842;8.926;2022-07-17T02:51:55;97907.09;;;16.61;54.94
1401;BME280;46518;48.842;8.926;2022-07-17T02:54:24;97904.66;;;16.39;55.62
1401;BME280;46518;48.842;8.926;2022-07-17T02:56:52;97906.28;;;16.55;55.61
1401;BME280;46518;48.842;8.926;2022-07-17T02:59:20;97908.41;;;16.69;55.25
1401;BME280;46518;48.842;8.926;2022-07-17T03:01:51;97903.91;;;16.79;55.04
1401;BME280;46518;48.842;8.926;2022-07-17T03:04:19;97901.75;;;16.41;56.28
1401;BME280;46518;48.842;8.926;2022-07-17T03:06:48;97898.56;;;16.38;56.36
1401;BME280;46518;48.842;8.926;2022-07-17T03:09:18;97899.09;;;16.46;56.19
1401;BME280;46518;48.842;8.926;2022-07-17T03:11:46;97900.41;;;16.28;56.24
1401;BME280;46518;48.842;8.926;2022-07-17T03:14:14;97901.16;;;16.13;55.63
1401;BME280;46518;48.842;8.926;2022-07-17T03:16:45;97896.34;;;16.10;55.90
1401;BME280;46518;48.842;8.926;2022-07-17T03:19:16;97890.53;;;16.08;56.41
1401;BME280;46518;48.842;8.926;2022-07-17T03:21:44;97895.81;;;15.98;56.69
1401;BME280;46518;48.842;8.926;2022-07-17T03:24:12;97894.19;;;16.02;56.96
1401;BME280;46518;48.842;8.926;2022-07-17T03:26:41;97899.47;;;15.91;57.32
1401;BME280;46518;48.842;8.926;2022-07-17T03:29:09;97909.84;;;15.93;56.25
1401;BME280;46518;48.842;8.926;2022-07-17T03:31:38;97907.31;;;15.66;57.64
1401;BME280;46518;48.842;8.926;2022-07-17T03:34:06;97902.41;;;15.42;57.99
1401;BME280;46518;48.842;8.926;2022-07-17T03:36:36;97904.38;;;15.62;57.45
1401;BME280;46518;48.842;8.926;2022-07-17T03:39:05;97904.44;;;15.30;58.46
1401;BME280;46518;48.842;8.926;2022-07-17T03:41:34;97903.91;;;15.23;58.79
1401;BME280;46518;48.842;8.926;2022-07-17T03:44:02;97906.03;;;14.88;58.82
1401;BME280;46518;48.842;8.926;2022-07-17T03:46:32;97910.28;;;14.89;59.22
1401;BME280;46518;48.842;8.926;2022-07-17T03:49:01;97905.25;;;14.88;59.84
1401;BME280;46518;48.842;8.926;2022-07-17T03:51:29;97903.63;;;14.87;60.47
1401;BME280;46518;48.842;8.926;2022-07-17T03:53:59;97904.97;;;14.89;60.72
1401;BME280;46518;48.842;8.926;2022-07-17T03:56:28;97908.22;;;14.97;60.63
1401;BME280;46518;48.842;8.926;2022-07-17T03:58:56;97918.22;;;14.89;60.57
1401;BME280;46518;48.842;8.926;2022-07-17T04:01:25;97921.22;;;14.98;60.43
1401;BME280;46518;48.842;8.926;2022-07-17T04:03:54;97919.53;;;14.87;61.14
1401;BME280;46518;48.842;8.926;2022-07-17T04:06:22;97916.63;;;14.88;61.17
1401;BME280;46518;48.842;8.926;2022-07-17T04:08:53;97920.31;;;14.87;61.45
1401;BME280;46518;48.842;8.926;2022-07-17T04:11:23;97918.53;;;14.93;61.22
1401;BME280;46518;48.842;8.926;2022-07-17T04:13:51;97919.59;;;14.97;61.67
1401;BME280;46518;48.842;8.926;2022-07-17T04:16:20;97922.22;;;14.92;62.10
1401;BME280;46518;48.842;8.926;2022-07-17T04:18:48;97925.13;;;15.23;61.81
1401;BME280;46518;48.842;8.926;2022-07-17T04:21:17;97924.22;;;15.12;61.63
1401;BME280;46518;48.842;8.926;2022-07-17T04:23:45;97932.00;;;15.24;61.21
1401;BME280;46518;48.842;8.926;2022-07-17T04:26:13;97930.94;;;15.25;60.99
1401;BME280;46518;48.842;8.926;2022-07-17T04:28:43;97931.03;;;15.35;60.95
1401;BME280;46518;48.842;8.926;2022-07-17T04:31:12;97923.09;;;15.40;60.97
1401;BME280;46518;48.842;8.926;2022-07-17T04:33:40;97929.44;;;15.39;61.43
1401;BME280;46518;48.842;8.926;2022-07-17T04:36:09;97933.69;;;15.35;61.49
1401;BME280;46518;48.842;8.926;2022-07-17T04:38:37;97929.47;;;15.44;61.79
1401;BME280;46518;48.842;8.926;2022-07-17T04:41:05;97935.03;;;15.38;62.64
1401;BME280;46518;48.842;8.926;2022-07-17T04:43:34;97928.88;;;15.32;63.52
1401;BME280;46518;48.842;8.926;2022-07-17T04:46:04;97922.25;;;15.35;63.50
1401;BME280;46518;48.842;8.926;2022-07-17T04:48:32;97926.28;;;15.42;63.02
1401;BME280;46518;48.842;8.926;2022-07-17T04:51:00;97925.25;;;15.48;63.24
1401;BME280;46518;48.842;8.926;2022-07-17T04:53:29;97936.81;;;15.69;62.33
1401;BME280;46518;48.842;8.926;2022-07-17T04:55:57;97934.47;;;15.73;62.42
1401;BME280;46518;48.842;8.926;2022-07-17T04:58:26;97938.78;;;16.00;61.41
1401;BME280;46518;48.842;8.926;2022-07-17T05:00:54;97931.41;;;16.12;60.91
1401;BME280;46518;48.842;8.926;2022-07-17T05:03:24;97931.41;;;16.17;61.06
1401;BME280;46518;48.842;8.926;2022-07-17T05:05:52;97933.84;;;16.24;60.89
1401;BME280;46518;48.842;8.926;2022-07-17T05:08:21;97931.16;;;16.18;60.72
1401;BME280;46518;48.842;8.926;2022-07-17T05:10:49;97939.91;;;16.09;61.17
1401;BME280;46518;48.842;8.926;2022-07-17T05:13:17;97937.47;;;16.02;61.41
1401;BME280;46518;48.842;8.926;2022-07-17T05:15:46;97938.03;;;16.04;61.17
1401;BME280;46518;48.842;8.926;2022-07-17T05:18:16;97936.69;;;16.07;61.79
1401;BME280;46518;48.842;8.926;2022-07-17T05:20:46;97935.44;;;16.30;61.40
1401;BME280;46518;48.842;8.926;2022-07-17T05:23:14;97933.88;;;16.39;61.26
1401;BME280;46518;48.842;8.926;2022-07-17T05:25:43;97939.75;;;16.56;60.65
1401;BME280;46518;48.842;8.926;2022-07-17T05:28:11;97937.91;;;16.62;60.36
1401;BME280;46518;48.842;8.926;2022-07-17T05:30:40;97941.63;;;16.71;59.67
1401;BME280;46518;48.842;8.926;2022-07-17T05:33:08;97941.13;;;16.79;58.87
1401;BME280;46518;48.842;8.926;2022-07-17T05:35:37;97939.81;;;16.92;58.87
1401;BME280;46518;48.842;8.926;2022-07-17T05:38:06;97938.50;;;17.00;57.88
1401;BME280;46518;48.842;8.926;2022-07-17T05:40:35;97942.75;;;17.01;57.04
1401;BME280;46518;48.842;8.926;2022-07-17T05:43:03;97945.41;;;17.06;57.05
1401;BME280;46518;48.842;8.926;2022-07-17T05:45:31;97938.22;;;17.12;56.23
1401;BME280;46518;48.842;8.926;2022-07-17T05:48:00;97946.19;;;17.22;55.98
1401;BME280;46518;48.842;8.926;2022-07-17T05:50:28;97945.94;;;17.29;55.92
1401;BME280;46518;48.842;8.926;2022-07-17T05:52:57;97953.34;;;17.37;55.83
1401;BME280;46518;48.842;8.926;2022-07-17T05:55:26;97961.31;;;17.42;55.77
1401;BME280;46518;48.842;8.926;2022-07-17T05:57:55;97955.22;;;17.41;56.17
1401;BME280;46518;48.842;8.926;2022-07-17T06:00:23;97956.81;;;17.53;56.36
1401;BME280;46518;48.842;8.926;2022-07-17T06:02:52;97945.34;;;17.57;56.11
1401;BME280;46518;48.842;8.926;2022-07-17T06:05:20;97953.03;;;17.69;56.41
1401;BME280;46518;48.842;8.926;2022-07-17T06:07:48;97954.34;;;17.72;54.44
1401;BME280;46518;48.842;8.926;2022-07-17T06:10:17;97955.41;;;17.76;54.67
1401;BME280;46518;48.842;8.926;2022-07-17T06:12:47;97961.53;;;17.86;55.84
1401;BME280;46518;48.842;8.926;2022-07-17T06:15:16;97958.00;;;18.01;56.06
1401;BME280;46518;48.842;8.926;2022-07-17T06:17:45;97967.31;;;18.04;55.72
1401;BME280;46518;48.842;8.926;2022-07-17T06:20:14;97960.09;;;18.15;55.55
1401;BME280;46518;48.842;8.926;2022-07-17T06:22:43;97966.44;;;18.24;55.30
1401;BME280;46518;48.842;8.926;2022-07-17T06:25:12;97957.88;;;18.32;54.30
1401;BME280;46518;48.842;8.926;2022-07-17T06:27:41;97959.75;;;18.31;54.39
1401;BME280;46518;48.842;8.926;2022-07-17T06:30:14;97960.75;;;18.46;53.86
1401;BME280;46518;48.842;8.926;2022-07-17T06:32:43;97964.69;;;18.53;53.60
1401;BME280;46518;48.842;8.926;2022-07-17T06:35:12;97965.41;;;18.64;52.56
1401;BME280;46518;48.842;8.926;2022-07-17T06:37:40;97957.84;;;18.82;52.40
1401;BME280;46518;48.842;8.926;2022-07-17T06:40:09;97961.53;;;18.91;51.93
1401;BME280;46518;48.842;8.926;2022-07-17T06:42:37;97965.53;;;18.93;51.15
1401;BME280;46518;48.842;8.926;2022-07-17T06:45:07;97969.22;;;18.98;51.14
1401;BME280;46518;48.842;8.926;2022-07-17T06:47:38;97967.75;;;19.15;50.99
1401;BME280;46518;48.842;8.926;2022-07-17T06:50:07;97969.06;;;19.18;50.89
1401;BME280;46518;48.842;8.926;2022-07-17T06:52:36;97962.28;;;19.31;50.74
1401;BME280;46518;48.842;8.926;2022-07-17T06:55:13;97963.78;;;19.42;50.27
1401;BME280;46518;48.842;8.926;2022-07-17T06:57:41;97969.28;;;19.51;49.57
1401;BME280;46518;48.842;8.926;2022-07-17T07:00:10;97968.72;;;19.54;48.96
1401;BME280;46518;48.842;8.926;2022-07-17T07:02:40;97955.69;;;19.52;49.67
1401;BME280;46518;48.842;8.926;2022-07-17T07:05:09;97969.69;;;19.68;49.74
1401;BME280;46518;48.842;8.926;2022-07-17T07:07:37;97977.88;;;19.77;49.41
1401;BME280;46518;48.842;8.926;2022-07-17T07:10:07;97981.28;;;19.82;49.17
1401;BME280;46518;48.842;8.926;2022-07-17T07:12:35;97990.50;;;19.95;49.34
1401;BME280;46518;48.842;8.926;2022-07-17T07:15:04;97991.81;;;19.98;49.34
1401;BME280;46518;48.842;8.926;2022-07-17T07:17:40;97986.63;;;20.07;48.62
1401;BME280;46518;48.842;8.926;2022-07-17T07:20:09;97986.91;;;20.05;47.81
1401;BME280;46518;48.842;8.926;2022-07-17T07:22:38;97993.78;;;20.11;47.85
1401;BME280;46518;48.842;8.926;2022-07-17T07:25:07;97991.88;;;20.17;49.04
1401;BME280;46518;48.842;8.926;2022-07-17T07:27:36;97986.66;;;20.25;47.57
1401;BME280;46518;48.842;8.926;2022-07-17T07:30:05;97989.94;;;20.41;47.33
1401;BME280;46518;48.842;8.926;2022-07-17T07:32:37;97987.94;;;20.52;47.88
1401;BME280;46518;48.842;8.926;2022-07-17T07:35:08;97980.41;;;20.54;46.23
1401;BME280;46518;48.842;8.926;2022-07-17T07:37:37;97987.50;;;20.64;47.35
1401;BME280;46518;48.842;8.926;2022-07-17T07:40:06;97988.53;;;20.68;46.57
1401;BME280;46518;48.842;8.926;2022-07-17T07:42:35;97981.06;;;20.84;46.32
1401;BME280;46518;48.842;8.926;2022-07-17T07:45:03;97983.13;;;20.92;46.10
1401;BME280;46518;48.842;8.926;2022-07-17T07:47:32;97978.81;;;20.91;45.37
1401;BME280;46518;48.842;8.926;2022-07-17T07:50:00;97975.94;;;20.87;47.41
1401;BME280;46518;48.842;8.926;2022-07-17T07:52:30;97977.44;;;20.94;45.83
1401;BME280;46518;48.842;8.926;2022-07-17T07:54:58;97976.72;;;21.07;45.69
1401;BME280;46518;48.842;8.926;2022-07-17T07:57:26;97986.16;;;21.18;46.53
1401;BME280;46518;48.842;8.926;2022-07-17T07:59:54;97984.19;;;21.24;45.16
1401;BME280;46518;48.842;8.926;2022-07-17T08:02:23;97983.03;;;21.30;43.73
1401;BME280;46518;48.842;8.926;2022-07-17T08:04:51;97984.63;;;21.31;42.38
1401;BME280;46518;48.842;8.926;2022-07-17T08:07:19;97985.31;;;21.37;42.03
1401;BME280;46518;48.842;8.926;2022-07-17T08:09:48;97986.91;;;21.38;42.56
1401;BME280;46518;48.842;8.926;2022-07-17T08:12:17;97993.72;;;21.49;42.31
1401;BME280;46518;48.842;8.926;2022-07-17T08:15:05;97997.03;;;21.60;42.72
1401;BME280;46518;48.842;8.926;2022-07-17T08:17:34;97994.03;;;21.61;44.96
1401;BME280;46518;48.842;8.926;2022-07-17T08:20:03;97993.97;;;21.80;44.25
1401;BME280;46518;48.842;8.926;2022-07-17T08:22:39;97994.25;;;21.92;43.46
1401;BME280;46518;48.842;8.926;2022-07-17T08:25:29;97998.13;;;21.86;46.42
1401;BME280;46518;48.842;8.926;2022-07-17T08:27:58;97974.00;;;21.86;44.98
1401;BME280;46518;48.842;8.926;2022-07-17T08:30:26;97985.13;;;22.07;44.05
1401;BME280;46518;48.842;8.926;2022-07-17T08:32:55;97986.31;;;22.01;42.73
1401;BME280;46518;48.842;8.926;2022-07-17T08:35:23;97984.44;;;22.02;43.87
1401;BME280;46518;48.842;8.926;2022-07-17T08:37:53;97986.94;;;22.12;44.74
1401;BME280;46518;48.842;8.926;2022-07-17T08:40:22;97985.22;;;22.16;42.58
1401;BME280;46518;48.842;8.926;2022-07-17T08:42:53;97986.13;;;22.25;42.10
1401;BME280;46518;48.842;8.926;2022-07-17T08:45:23;97999.44;;;22.30;41.05
1401;BME280;46518;48.842;8.926;2022-07-17T08:47:53;97988.31;;;22.37;41.80
1401;BME280;46518;48.842;8.926;2022-07-17T08:50:23;97986.69;;;22.50;41.47
1401;BME280;46518;48.842;8.926;2022-07-17T08:52:52;97989.88;;;22.52;43.44
1401;BME280;46518;48.842;8.926;2022-07-17T08:55:21;97993.03;;;22.54;42.83
1401;BME280;46518;48.842;8.926;2022-07-17T08:57:49;97993.63;;;22.65;40.85
1401;BME280;46518;48.842;8.926;2022-07-17T09:00:20;97999.00;;;22.65;40.01
1401;BME280;46518;48.842;8.926;2022-07-17T09:02:56;97993.19;;;22.71;40.41
1401;BME280;46518;48.842;8.926;2022-07-17T09:05:26;97995.16;;;22.79;42.41
1401;BME280;46518;48.842;8.926;2022-07-17T09:07:55;97997.25;;;22.82;39.89
1401;BME280;46518;48.842;8.926;2022-07-17T09:10:35;97998.53;;;22.85;38.76
1401;BME280;46518;48.842;8.926;2022-07-17T09:13:17;98001.50;;;22.83;38.54
1401;BME280;46518;48.842;8.926;2022-07-17T09:15:49;97995.31;;;22.97;38.57
1401;BME280;46518;48.842;8.926;2022-07-17T09:18:18;98002.16;;;23.03;39.37
1401;BME280;46518;48.842;8.926;2022-07-17T09:20:49;98000.84;;;23.14;39.34
1401;BME280;46518;48.842;8.926;2022-07-17T09:23:18;98005.47;;;23.22;39.07
1401;BME280;46518;48.842;8.926;2022-07-17T09:25:48;98002.47;;;23.24;40.44
1401;BME280;46518;48.842;8.926;2022-07-17T09:28:17;98002.66;;;23.28;38.45
1401;BME280;46518;48.842;8.926;2022-07-17T09:30:48;97990.00;;;23.28;38.04
1401;BME280;46518;48.842;8.926;2022-07-17T09:33:19;97984.00;;;23.31;37.10
1401;BME280;46518;48.842;8.926;2022-07-17T09:35:50;97985.97;;;23.39;36.52
1401;BME280;46518;48.842;8.926;2022-07-17T09:38:29;97980.16;;;23.46;38.29
1401;BME280;46518;48.842;8.926;2022-07-17T09:41:06;97987.00;;;23.52;37.86
1401;BME280;46518;48.842;8.926;2022-07-17T09:43:46;97987.66;;;23.58;38.32
1401;BME280;46518;48.842;8.926;2022-07-17T09:46:20;97981.28;;;23.54;35.05
1401;BME280;46518;48.842;8.926;2022-07-17T09:48:50;97976.28;;;23.61;34.95
1401;BME280;46518;48.842;8.926;2022-07-17T09:51:24;97992.59;;;23.64;34.67
1401;BME280;46518;48.842;8.926;2022-07-17T09:53:54;97992.13;;;23.71;36.65
1401;BME280;46518;48.842;8.926;2022-07-17T09:56:25;97995.38;;;23.82;34.86
1401;BME280;46518;48.842;8.926;2022-07-17T09:58:55;97992.91;;;23.94;34.84
1401;BME280;46518;48.842;8.926;2022-07-17T10:01:28;97987.19;;;23.96;35.68
1401;BME280;46518;48.842;8.926;2022-07-17T10:03:57;97990.38;;;23.98;36.26
1401;BME280;46518;48.842;8.926;2022-07-17T10:06:26;97981.06;;;24.04;35.96
1401;BME280;46518;48.842;8.926;2022-07-17T10:08:55;97985.81;;;24.07;36.01
1401;BME280;46518;48.842;8.926;2022-07-17T10:11:27;97980.13;;;24.08;35.26
1401;BME280;46518;48.842;8.926;2022-07-17T10:14:02;97984.88;;;24.11;32.37
1401;BME280;46518;48.842;8.926;2022-07-17T10:16:35;97984.25;;;24.15;31.08
1401;BME280;46518;48.842;8.926;2022-07-17T10:19:15;97976.66;;;24.17;30.83
1401;BME280;46518;48.842;8.926;2022-07-17T10:21:55;97967.53;;;24.26;31.09
1401;BME280;46518;48.842;8.926;2022-07-17T10:24:25;97967.38;;;24.31;31.21
1401;BME280;46518;48.842;8.926;2022-07-17T10:26:54;97968.50;;;24.39;30.65
1401;BME280;46518;48.842;8.926;2022-07-17T10:29:27;97961.97;;;24.23;29.56
1401;BME280;46518;48.842;8.926;2022-07-17T10:31:59;97961.50;;;24.38;30.90
1401;BME280;46518;48.842;8.926;2022-07-17T10:34:40;97964.84;;;24.44;34.34
1401;BME280;46518;48.842;8.926;2022-07-17T10:37:22;97960.78;;;24.46;33.53
1401;BME280;46518;48.842;8.926;2022-07-17T10:40:04;97956.16;;;24.56;34.37
1401;BME280;46518;48.842;8.926;2022-07-17T10:42:57;97952.53;;;24.60;32.79
1401;BME280;46518;48.842;8.926;2022-07-17T10:45:28;97954.75;;;24.67;33.13
1401;BME280;46518;48.842;8.926;2022-07-17T10:48:04;97958.38;;;24.71;32.91
1401;BME280;46518;48.842;8.926;2022-07-17T10:50:34;97948.72;;;24.79;30.81
1401;BME280;46518;48.842;8.926;2022-07-17T10:53:14;97955.41;;;24.81;29.34
1401;BME280;46518;48.842;8.926;2022-07-17T10:55:52;97948.41;;;24.80;32.93
1401;BME280;46518;48.842;8.926;2022-07-17T10:58:25;97947.16;;;24.86;31.25
1401;BME280;46518;48.842;8.926;2022-07-17T11:01:05;97962.50;;;24.94;29.36
1401;BME280;46518;48.842;8.926;2022-07-17T11:03:39;97961.06;;;24.97;29.93
1401;BME280;46518;48.842;8.926;2022-07-17T11:06:13;97949.34;;;25.02;28.73
1401;BME280;46518;48.842;8.926;2022-07-17T11:08:47;97953.13;;;25.01;27.44
1401;BME280;46518;48.842;8.926;2022-07-17T11:11:19;97951.56;;;25.17;28.93
1401;BME280;46518;48.842;8.926;2022-07-17T11:14:07;97939.66;;;25.27;28.81
1401;BME280;46518;48.842;8.926;2022-07-17T11:16:36;97948.38;;;25.24;28.09
1401;BME280;46518;48.842;8.926;2022-07-17T11:19:06;97948.38;;;25.24;29.25
1401;BME280;46518;48.842;8.926;2022-07-17T11:21:45;97940.75;;;25.34;30.39
1401;BME280;46518;48.842;8.926;2022-07-17T11:24:13;97947.72;;;25.35;27.69
1401;BME280;46518;48.842;8.926;2022-07-17T11:26:43;97940.53;;;25.48;27.76
1401;BME280;46518;48.842;8.926;2022-07-17T11:29:11;97946.09;;;25.43;26.33
1401;BME280;46518;48.842;8.926;2022-07-17T11:31:42;97950.06;;;25.46;24.79
1401;BME280;46518;48.842;8.926;2022-07-17T11:34:13;97951.44;;;25.60;25.87
1401;BME280;46518;48.842;8.926;2022-07-17T11:36:43;97956.69;;;25.57;24.62
1401;BME280;46518;48.842;8.926;2022-07-17T11:39:13;97947.47;;;25.58;24.84
1401;BME280;46518;48.842;8.926;2022-07-17T11:41:43;97941.72;;;25.68;29.07
1401;BME280;46518;48.842;8.926;2022-07-17T11:44:13;97952.31;;;25.82;26.89
1401;BME280;46518;48.842;8.926;2022-07-17T11:46:44;97948.78;;;25.90;26.39
1401;BME280;46518;48.842;8.926;2022-07-17T11:49:24;97950.19;;;25.96;26.14
1401;BME280;46518;48.842;8.926;2022-07-17T11:51:57;97943.22;;;25.95;26.61
1401;BME280;46518;48.842;8.926;2022-07-17T11:54:26;97922.94;;;25.89;25.23
1401;BME280;46518;48.842;8.926;2022-07-17T11:56:57;97933.03;;;26.01;25.31
1401;BME280;46518;48.842;8.926;2022-07-17T11:59:30;97939.03;;;26.07;27.98
1401;BME280;46518;48.842;8.926;2022-07-17T12:02:06;97938.56;;;26.04;24.35
1401;BME280;46518;48.842;8.926;2022-07-17T12:04:48;97944.56;;;26.10;26.47
1401;BME280;46518;48.842;8.926;2022-07-17T12:07:17;97930.66;;;25.99;23.14
1401;BME280;46518;48.842;8.926;2022-07-17T12:09:47;97936.25;;;26.15;28.61
1401;BME280;46518;48.842;8.926;2022-07-17T12:12:21;97932.41;;;26.25;23.80
1401;BME280;46518;48.842;8.926;2022-07-17T12:14:50;97923.72;;;26.19;22.91
1401;BME280;46518;48.842;8.926;2022-07-17T12:17:19;97933.44;;;26.12;22.55
1401;BME280;46518;48.842;8.926;2022-07-17T12:19:50;97915.34;;;26.12;27.40
1401;BME280;46518;48.842;8.926;2022-07-17T12:22:19;97916.00;;;26.30;24.32
1401;BME280;46518;48.842;8.926;2022-07-17T12:24:48;97918.50;;;26.35;23.16
1401;BME280;46518;48.842;8.926;2022-07-17T12:27:16;97920.03;;;26.45;22.22
1401;BME280;46518;48.842;8.926;2022-07-17T12:29:45;97932.69;;;26.53;22.96
1401;BME280;46518;48.842;8.926;2022-07-17T12:32:16;97934.75;;;26.56;22.39
1401;BME280;46518;48.842;8.926;2022-07-17T12:34:49;97922.69;;;26.54;23.39
1401;BME280;46518;48.842;8.926;2022-07-17T12:37:24;97927.81;;;26.67;23.08
1401;BME280;46518;48.842;8.926;2022-07-17T12:39:53;97925.63;;;26.82;24.37
1401;BME280;46518;48.842;8.926;2022-07-17T12:42:23;97913.91;;;26.78;26.86
1401;BME280;46518;48.842;8.926;2022-07-17T12:45:11;97920.88;;;27.12;27.24
1401;BME280;46518;48.842;8.926;2022-07-17T12:47:40;97915.53;;;27.24;26.61
1401;BME280;46518;48.842;8.926;2022-07-17T12:51:00;97914.78;;;27.36;25.81
1401;BME280;46518;48.842;8.926;2022-07-17T12:53:43;97921.97;;;27.44;23.72
1401;BME280;46518;48.842;8.926;2022-07-17T12:56:13;97912.16;;;27.27;23.31
1401;BME280;46518;48.842;8.926;2022-07-17T12:58:42;97908.66;;;27.27;23.12
1401;BME280;46518;48.842;8.926;2022-07-17T13:01:12;97920.31;;;27.52;22.45
1401;BME280;46518;48.842;8.926;2022-07-17T13:03:41;97920.31;;;27.52;22.57
1401;BME280;46518;48.842;8.926;2022-07-17T13:06:22;97897.09;;;27.39;22.03
1401;BME280;46518;48.842;8.926;2022-07-17T13:08:51;97903.97;;;27.36;22.55
1401;BME280;46518;48.842;8.926;2022-07-17T13:11:29;97911.97;;;27.57;22.45
1401;BME280;46518;48.842;8.926;2022-07-17T13:15:07;97896.28;;;27.63;22.41
1401;BME280;46518;48.842;8.926;2022-07-17T13:17:38;97911.75;;;27.74;22.61
1401;BME280;46518;48.842;8.926;2022-07-17T13:20:10;97908.34;;;27.78;21.53
1401;BME280;46518;48.842;8.926;2022-07-17T13:22:42;97887.75;;;27.85;21.64
1401;BME280;46518;48.842;8.926;2022-07-17T13:25:10;97908.38;;;27.90;21.97
1401;BME280;46518;48.842;8.926;2022-07-17T13:27:39;97896.06;;;27.80;22.56
1401;BME280;46518;48.842;8.926;2022-07-17T13:30:09;97905.44;;;27.83;22.31